createdAt,value
2023-06-25T00:00:27.561Z,11.73
2023-06-25T00:02:55.250Z,10.10
2023-06-25T00:05:22.553Z,11.45
2023-06-25T00:07:49.437Z,11.85
2023-06-25T00:10:16.222Z,12.52
2023-06-25T00:12:53.697Z,12.73
2023-06-25T00:15:20.960Z,11.90
2023-06-25T00:17:49.287Z,11.60
2023-06-25T00:20:19.674Z,11.23
2023-06-25T00:23:04.969Z,11.65
2023-06-25T00:25:32.988Z,12.30
2023-06-25T00:28:09.692Z,12.98
2023-06-25T00:30:39.021Z,12.77
2023-06-25T00:33:06.724Z,12.77
2023-06-25T00:35:52.711Z,13.43
2023-06-25T00:38:19.700Z,14.50
2023-06-25T00:40:46.955Z,14.38
2023-06-25T00:43:16.719Z,15.30
2023-06-25T00:45:44.646Z,16.05
2023-06-25T00:48:12.630Z,15.05
2023-06-25T00:50:40.955Z,14.05
2023-06-25T00:53:10.255Z,15.43
2023-06-25T00:55:38.209Z,17.40
2023-06-25T00:58:09.174Z,16.20
2023-06-25T01:00:36.588Z,15.75
2023-06-25T01:03:09.445Z,15.80
2023-06-25T01:05:54.533Z,15.27
2023-06-25T01:08:31.006Z,13.90
2023-06-25T01:10:58.651Z,13.90
2023-06-25T01:13:27.819Z,11.55
2023-06-25T01:15:54.583Z,11.57
2023-06-25T01:18:24.638Z,12.90
2023-06-25T01:20:54.865Z,12.73
2023-06-25T01:23:23.127Z,11.93
2023-06-25T01:25:51.528Z,12.82
2023-06-25T01:28:21.693Z,13.35
2023-06-25T01:30:53.665Z,12.07
2023-06-25T01:33:22.645Z,12.00
2023-06-25T01:35:49.392Z,12.68
2023-06-25T01:38:16.460Z,11.80
2023-06-25T01:40:44.426Z,11.30
2023-06-25T01:43:12.434Z,13.07
2023-06-25T01:45:39.840Z,13.05
2023-06-25T01:48:07.295Z,11.98
2023-06-25T01:50:35.499Z,12.52
2023-06-25T01:53:02.450Z,13.00
2023-06-25T01:55:29.435Z,11.48
2023-06-25T01:57:57.385Z,11.73
2023-06-25T02:00:24.475Z,11.27
2023-06-25T02:02:51.457Z,12.43
2023-06-25T02:05:18.209Z,12.55
2023-06-25T02:07:45.603Z,10.98
2023-06-25T02:10:16.157Z,11.45
2023-06-25T02:12:43.803Z,12.98
2023-06-25T02:15:11.533Z,11.90
2023-06-25T02:17:38.414Z,13.43
2023-06-25T02:20:06.594Z,11.98
2023-06-25T02:22:33.754Z,12.13
2023-06-25T02:25:01.746Z,12.10
2023-06-25T02:27:28.739Z,11.75
2023-06-25T02:29:57.071Z,11.35
2023-06-25T02:32:24.013Z,11.50
2023-06-25T02:34:51.237Z,11.82
2023-06-25T02:37:18.914Z,11.07
2023-06-25T02:39:47.521Z,10.80
2023-06-25T02:42:14.332Z,10.73
2023-06-25T02:44:43.395Z,10.23
2023-06-25T02:47:14.007Z,11.27
2023-06-25T02:49:40.831Z,10.85
2023-06-25T02:52:10.759Z,10.18
2023-06-25T02:54:37.490Z,10.93
2023-06-25T02:57:04.411Z,9.55
2023-06-25T02:59:31.108Z,9.55
2023-06-25T03:01:58.187Z,10.10
2023-06-25T03:04:25.696Z,11.50
2023-06-25T03:06:52.634Z,10.05
2023-06-25T03:09:20.225Z,9.48
2023-06-25T03:11:48.031Z,9.80
2023-06-25T03:14:30.027Z,9.13
2023-06-25T03:17:02.604Z,8.25
2023-06-25T03:19:29.482Z,8.80
2023-06-25T03:21:56.722Z,7.35
2023-06-25T03:24:23.737Z,8.13
2023-06-25T03:26:50.918Z,7.47
2023-06-25T03:29:18.937Z,7.05
2023-06-25T03:31:46.937Z,7.18
2023-06-25T03:34:14.046Z,8.52
2023-06-25T03:36:40.957Z,9.05
2023-06-25T03:39:07.964Z,9.52
2023-06-25T03:41:35.605Z,9.10
2023-06-25T03:44:02.723Z,9.23
2023-06-25T03:46:29.739Z,10.55
2023-06-25T03:48:56.835Z,10.65
2023-06-25T03:51:25.356Z,12.15
2023-06-25T03:53:52.273Z,11.38
2023-06-25T03:56:19.282Z,15.07
2023-06-25T03:58:46.199Z,11.85
2023-06-25T04:01:14.521Z,10.63
2023-06-25T04:03:41.358Z,11.00
2023-06-25T04:06:08.233Z,11.52
2023-06-25T04:08:35.064Z,12.07
2023-06-25T04:11:01.816Z,13.57
2023-06-25T04:13:28.904Z,12.40
2023-06-25T04:15:56.041Z,13.43
2023-06-25T04:18:27.042Z,13.48
2023-06-25T04:20:54.517Z,11.80
2023-06-25T04:23:21.830Z,11.40
2023-06-25T04:25:49.495Z,11.27
2023-06-25T04:28:17.185Z,11.13
2023-06-25T04:30:44.482Z,10.98
2023-06-25T04:33:11.642Z,9.45
2023-06-25T04:35:38.775Z,11.15
2023-06-25T04:38:08.136Z,10.98
2023-06-25T04:40:45.103Z,9.70
2023-06-25T04:43:17.912Z,9.80
2023-06-25T04:45:52.858Z,9.68
2023-06-25T04:48:19.937Z,10.88
2023-06-25T04:50:47.547Z,9.90
2023-06-25T04:53:15.206Z,9.82
2023-06-25T04:55:42.444Z,9.65
2023-06-25T04:58:09.774Z,9.35
2023-06-25T05:00:40.788Z,10.13
2023-06-25T05:03:08.724Z,9.75
2023-06-25T05:05:35.955Z,9.85
2023-06-25T05:08:03.503Z,9.90
2023-06-25T05:10:31.130Z,10.13
2023-06-25T05:12:58.883Z,10.65
2023-06-25T05:15:25.786Z,9.68
2023-06-25T05:17:52.583Z,10.10
2023-06-25T05:20:20.702Z,10.02
2023-06-25T05:22:48.107Z,10.63
2023-06-25T05:25:15.497Z,11.30
2023-06-25T05:27:42.357Z,10.85
2023-06-25T05:30:10.948Z,10.80
2023-06-25T05:32:37.850Z,10.75
2023-06-25T05:35:05.451Z,11.35
2023-06-25T05:37:32.400Z,10.43
2023-06-25T05:40:00.030Z,11.77
2023-06-25T05:42:26.867Z,12.07
2023-06-25T05:44:54.361Z,13.00
2023-06-25T05:47:21.910Z,13.82
2023-06-25T05:50:13.818Z,15.05
2023-06-25T05:52:43.412Z,13.93
2023-06-25T05:55:10.674Z,13.48
2023-06-25T05:57:40.115Z,14.23
2023-06-25T06:00:12.400Z,13.48
2023-06-25T06:03:10.491Z,11.60
2023-06-25T06:05:38.917Z,10.90
2023-06-25T06:08:06.139Z,9.57
2023-06-25T06:10:36.375Z,11.35
2023-06-25T06:16:42.674Z,11.20
2023-06-25T06:19:15.612Z,11.27
2023-06-25T06:21:42.405Z,11.13
2023-06-25T06:24:10.445Z,11.20
2023-06-25T06:26:37.286Z,11.30
2023-06-25T06:29:05.808Z,11.65
2023-06-25T06:31:33.807Z,11.98
2023-06-25T06:34:01.122Z,10.20
2023-06-25T06:36:28.234Z,9.73
2023-06-25T06:38:55.533Z,10.80
2023-06-25T06:41:22.625Z,8.68
2023-06-25T06:43:49.493Z,9.80
2023-06-25T06:46:17.047Z,10.38
2023-06-25T06:48:44.655Z,10.45
2023-06-25T06:51:11.705Z,7.90
2023-06-25T06:53:38.580Z,9.75
2023-06-25T06:56:07.315Z,10.55
2023-06-25T06:58:34.212Z,9.90
2023-06-25T07:01:01.111Z,11.00
2023-06-25T07:03:30.810Z,12.18
2023-06-25T07:05:57.642Z,11.60
2023-06-25T07:08:24.503Z,10.80
2023-06-25T07:10:51.518Z,11.95
2023-06-25T07:13:19.311Z,12.40
2023-06-25T07:15:46.215Z,10.70
2023-06-25T07:18:13.451Z,10.05
2023-06-25T07:20:43.426Z,10.63
2023-06-25T07:23:30.570Z,10.43
2023-06-25T07:25:57.593Z,10.35
2023-06-25T07:28:24.946Z,10.30
2023-06-25T07:30:53.165Z,10.15
2023-06-25T07:33:20.359Z,10.57
2023-06-25T07:35:47.341Z,8.07
2023-06-25T07:38:15.828Z,9.73
2023-06-25T07:40:43.777Z,8.38
2023-06-25T07:43:11.634Z,8.50
2023-06-25T07:45:40.861Z,7.25
2023-06-25T07:48:08.299Z,7.97
2023-06-25T07:50:37.203Z,8.35
2023-06-25T07:53:04.033Z,8.88
2023-06-25T07:55:31.353Z,7.75
2023-06-25T07:57:58.225Z,8.10
2023-06-25T08:00:25.843Z,8.98
2023-06-25T08:02:53.161Z,8.85
2023-06-25T08:05:21.320Z,10.45
2023-06-25T08:07:48.633Z,9.77
2023-06-25T08:10:16.814Z,8.88
2023-06-25T08:12:44.030Z,9.43
2023-06-25T08:15:11.602Z,7.68
2023-06-25T08:17:39.316Z,8.80
2023-06-25T08:20:07.158Z,7.78
2023-06-25T08:22:34.596Z,8.65
2023-06-25T08:25:01.625Z,7.97
2023-06-25T08:27:29.056Z,8.18
2023-06-25T08:29:56.064Z,8.48
2023-06-25T08:32:22.970Z,8.57
2023-06-25T08:34:50.415Z,8.55
2023-06-25T08:37:18.800Z,8.25
2023-06-25T08:39:46.528Z,7.15
2023-06-25T08:42:14.036Z,7.78
2023-06-25T08:44:42.367Z,8.52
2023-06-25T08:47:10.649Z,7.93
2023-06-25T08:49:39.506Z,8.68
2023-06-25T08:52:07.571Z,7.80
2023-06-25T08:54:34.816Z,7.10
2023-06-25T08:57:03.998Z,7.32
2023-06-25T08:59:31.526Z,7.57
2023-06-25T09:01:58.475Z,7.40
2023-06-25T09:04:25.849Z,8.02
2023-06-25T09:07:03.283Z,7.53
2023-06-25T09:09:31.621Z,8.82
2023-06-25T09:11:58.420Z,8.65
2023-06-25T09:14:25.713Z,7.82
2023-06-25T09:16:57.230Z,8.50
2023-06-25T09:19:26.824Z,8.25
2023-06-25T09:22:03.348Z,7.47
2023-06-25T09:24:31.276Z,7.65
2023-06-25T09:26:58.580Z,7.65
2023-06-25T09:29:26.589Z,7.78
2023-06-25T09:31:53.517Z,7.45
2023-06-25T09:34:20.951Z,8.32
2023-06-25T09:36:48.512Z,7.68
2023-06-25T09:39:15.754Z,8.70
2023-06-25T09:41:44.707Z,9.50
2023-06-25T09:44:12.543Z,8.85
2023-06-25T09:46:41.702Z,7.00
2023-06-25T09:49:08.923Z,7.82
2023-06-25T09:51:42.637Z,7.30
2023-06-25T09:54:12.723Z,7.38
2023-06-25T09:56:42.475Z,7.22
2023-06-25T09:59:10.072Z,8.15
2023-06-25T10:01:38.877Z,7.28
2023-06-25T10:04:08.584Z,8.48
2023-06-25T10:06:36.712Z,8.18
2023-06-25T10:09:06.149Z,8.65
2023-06-25T10:11:38.045Z,8.20
2023-06-25T10:14:09.770Z,9.32
2023-06-25T10:16:39.976Z,8.95
2023-06-25T10:19:10.729Z,7.93
2023-06-25T10:21:38.281Z,8.75
2023-06-25T10:24:05.683Z,9.02
2023-06-25T10:26:35.979Z,9.57
2023-06-25T10:29:10.033Z,9.43
2023-06-25T10:31:42.979Z,9.30
2023-06-25T10:34:12.157Z,9.68
2023-06-25T10:36:50.418Z,9.82
2023-06-25T10:39:17.674Z,9.68
2023-06-25T10:41:48.950Z,9.95
2023-06-25T10:44:16.533Z,9.18
2023-06-25T10:46:48.472Z,10.27
2023-06-25T10:49:25.801Z,10.38
2023-06-25T10:51:56.976Z,11.05
2023-06-25T10:54:24.866Z,11.85
2023-06-25T10:57:05.777Z,10.90
2023-06-25T10:59:32.916Z,14.07
2023-06-25T11:02:22.712Z,13.55
2023-06-25T11:05:00.075Z,14.63
2023-06-25T11:07:28.567Z,14.02
2023-06-25T11:09:59.886Z,14.52
2023-06-25T11:12:28.626Z,15.43
2023-06-25T11:14:59.929Z,14.68
2023-06-25T11:17:28.009Z,15.27
2023-06-25T11:19:57.917Z,17.25
2023-06-25T11:22:25.110Z,13.35
2023-06-25T11:24:52.591Z,13.20
2023-06-25T11:27:27.213Z,13.88
2023-06-25T11:29:58.153Z,12.70
2023-06-25T11:32:27.872Z,13.38
2023-06-25T11:34:57.264Z,14.18
2023-06-25T11:37:24.714Z,13.52
2023-06-25T11:39:58.597Z,14.05
2023-06-25T11:42:26.303Z,13.50
2023-06-25T11:45:04.755Z,14.07
2023-06-25T11:47:32.514Z,14.52
2023-06-25T11:50:02.044Z,13.52
2023-06-25T11:52:30.659Z,14.30
2023-06-25T11:54:57.952Z,13.30
2023-06-25T11:57:24.939Z,13.45
2023-06-25T11:59:52.864Z,12.43
2023-06-25T12:02:19.785Z,14.20
2023-06-25T12:04:47.020Z,11.73
2023-06-25T12:07:14.958Z,11.18
2023-06-25T12:09:43.762Z,14.80
2023-06-25T12:12:11.313Z,14.02
2023-06-25T12:14:38.476Z,13.93
2023-06-25T12:17:10.145Z,14.70
2023-06-25T12:19:44.424Z,13.98
2023-06-25T12:22:11.909Z,13.23
2023-06-25T12:24:39.499Z,13.63
2023-06-25T12:27:16.991Z,12.82
2023-06-25T12:29:43.914Z,15.23
2023-06-25T12:32:11.311Z,13.85
2023-06-25T12:34:38.185Z,15.70
2023-06-25T12:37:06.151Z,12.52
2023-06-25T12:39:35.780Z,12.82
2023-06-25T12:42:04.323Z,13.13
2023-06-25T12:44:31.235Z,11.32
2023-06-25T12:46:58.512Z,9.93
2023-06-25T12:49:25.684Z,10.40
2023-06-25T12:51:54.336Z,10.93
2023-06-25T12:54:21.569Z,11.82
2023-06-25T12:56:48.567Z,10.77
2023-06-25T12:59:16.144Z,10.50
2023-06-25T13:01:43.269Z,10.25
2023-06-25T13:04:11.125Z,10.70
2023-06-25T13:06:39.245Z,11.05
2023-06-25T13:09:06.960Z,10.00
2023-06-25T13:11:35.862Z,10.45
2023-06-25T13:14:03.371Z,10.73
2023-06-25T13:16:30.374Z,8.95
2023-06-25T13:18:57.410Z,8.98
2023-06-25T13:21:24.483Z,9.77
2023-06-25T13:23:51.437Z,8.93
2023-06-25T13:26:29.308Z,9.13
2023-06-25T13:28:56.296Z,9.43
2023-06-25T13:31:32.251Z,9.68
2023-06-25T13:33:59.583Z,9.18
2023-06-25T13:36:26.513Z,10.82
2023-06-25T13:38:54.523Z,10.10
2023-06-25T13:41:21.938Z,9.82
2023-06-25T13:43:49.105Z,9.80
2023-06-25T13:46:16.746Z,9.95
2023-06-25T13:48:44.581Z,9.52
2023-06-25T13:51:11.581Z,9.32
2023-06-25T13:53:40.271Z,10.52
2023-06-25T13:56:09.891Z,9.55
2023-06-25T13:58:39.873Z,10.20
2023-06-25T14:01:07.256Z,9.18
2023-06-25T14:06:36.216Z,9.00
2023-06-25T14:09:05.859Z,8.75
2023-06-25T14:11:33.167Z,10.05
2023-06-25T14:14:00.037Z,8.82
2023-06-25T14:16:35.607Z,9.10
2023-06-25T14:19:02.997Z,9.13
2023-06-25T14:21:32.102Z,10.10
2023-06-25T14:23:59.154Z,8.82
2023-06-25T14:26:26.948Z,9.15
2023-06-25T14:29:06.632Z,9.93
2023-06-25T14:31:37.072Z,10.07
2023-06-25T14:34:04.085Z,9.45
2023-06-25T14:36:31.351Z,9.23
2023-06-25T14:38:59.557Z,8.32
2023-06-25T14:41:28.078Z,9.40
2023-06-25T14:43:55.550Z,9.85
2023-06-25T14:46:22.435Z,8.45
2023-06-25T14:48:49.920Z,9.75
2023-06-25T14:51:21.064Z,10.48
2023-06-25T14:53:49.025Z,8.93
2023-06-25T14:56:17.320Z,9.18
2023-06-25T14:58:46.786Z,10.23
2023-06-25T15:01:13.669Z,9.07
2023-06-25T15:03:41.738Z,9.07
2023-06-25T15:06:15.483Z,9.77
2023-06-25T15:08:51.832Z,9.27
2023-06-25T15:11:20.370Z,8.80
2023-06-25T15:13:47.225Z,9.35
2023-06-25T15:16:18.568Z,10.43
2023-06-25T15:18:45.419Z,9.80
2023-06-25T15:21:12.609Z,9.57
2023-06-25T15:23:39.537Z,10.30
2023-06-25T15:26:09.583Z,10.25
2023-06-25T15:28:36.625Z,10.27
2023-06-25T15:31:03.952Z,10.20
2023-06-25T15:33:32.740Z,10.00
2023-06-25T15:36:01.545Z,10.23
2023-06-25T15:38:28.475Z,9.52
2023-06-25T15:40:57.464Z,11.05
2023-06-25T15:43:27.396Z,10.45
2023-06-25T15:45:55.312Z,11.35
2023-06-25T15:48:22.618Z,9.98
2023-06-25T15:50:50.449Z,11.50
2023-06-25T15:53:17.510Z,11.95
2023-06-25T15:55:45.528Z,11.43
2023-06-25T15:58:15.171Z,11.15
2023-06-25T16:00:43.217Z,11.15
2023-06-25T16:03:11.153Z,13.48
2023-06-25T16:05:38.843Z,12.27
2023-06-25T16:08:08.551Z,13.63
2023-06-25T16:10:37.758Z,12.93
2023-06-25T16:13:05.425Z,13.75
2023-06-25T16:15:35.864Z,13.23
2023-06-25T16:18:04.131Z,10.38
2023-06-25T16:20:31.814Z,12.30
2023-06-25T16:22:58.872Z,12.27
2023-06-25T16:25:27.237Z,13.65
2023-06-25T16:27:54.325Z,12.40
2023-06-25T16:30:21.430Z,12.52
2023-06-25T16:32:48.742Z,12.90
2023-06-25T16:35:15.939Z,13.68
2023-06-25T16:37:43.123Z,11.68
2023-06-25T16:40:12.998Z,14.20
2023-06-25T16:42:40.673Z,11.85
2023-06-25T16:45:07.822Z,11.80
2023-06-25T16:47:35.669Z,11.65
2023-06-25T16:50:09.455Z,12.30
2023-06-25T16:52:37.273Z,13.33
2023-06-25T16:55:07.768Z,13.48
2023-06-25T16:57:37.499Z,14.25
2023-06-25T17:00:06.977Z,13.52
2023-06-25T17:02:34.097Z,14.52
2023-06-25T17:05:01.180Z,13.63
2023-06-25T17:07:31.465Z,13.02
2023-06-25T17:09:59.358Z,11.98
2023-06-25T17:12:26.105Z,11.98
2023-06-25T17:14:59.618Z,12.88
2023-06-25T17:17:26.928Z,12.68
2023-06-25T17:19:54.524Z,15.50
2023-06-25T17:22:21.257Z,11.43
2023-06-25T17:24:48.148Z,9.93
2023-06-25T17:27:15.885Z,11.85
2023-06-25T17:29:43.086Z,11.13
2023-06-25T17:32:11.657Z,11.88
2023-06-25T17:34:43.272Z,12.23
2023-06-25T17:37:10.833Z,11.30
2023-06-25T17:39:37.667Z,11.68
2023-06-25T17:42:07.568Z,11.55
2023-06-25T17:44:36.917Z,12.57
2023-06-25T17:47:04.305Z,11.90
2023-06-25T17:49:32.450Z,11.75
2023-06-25T17:51:59.707Z,12.10
2023-06-25T17:54:26.466Z,10.98
2023-06-25T17:56:56.804Z,12.65
2023-06-25T17:59:27.663Z,13.10
2023-06-25T18:01:55.882Z,11.90
2023-06-25T18:04:22.674Z,12.15
2023-06-25T18:06:50.382Z,13.05
2023-06-25T18:09:18.142Z,11.93
2023-06-25T18:11:45.023Z,13.02
2023-06-25T18:14:15.222Z,13.80
2023-06-25T18:16:42.390Z,11.90
2023-06-25T18:19:09.096Z,12.68
2023-06-25T18:21:35.973Z,13.00
2023-06-25T18:24:03.027Z,13.13
2023-06-25T18:26:29.975Z,12.05
2023-06-25T18:28:57.550Z,12.40
2023-06-25T18:31:24.548Z,11.68
2023-06-25T18:33:54.453Z,13.65
2023-06-25T18:36:21.298Z,12.10
2023-06-25T18:38:48.212Z,13.40
2023-06-25T18:41:15.116Z,11.95
2023-06-25T18:43:41.878Z,10.27
2023-06-25T18:46:15.044Z,10.60
2023-06-25T18:48:42.470Z,11.40
2023-06-25T18:51:09.414Z,14.00
2023-06-25T18:53:36.566Z,11.45
2023-06-25T18:56:03.860Z,10.48
2023-06-25T18:58:30.947Z,12.20
2023-06-25T19:00:57.807Z,11.80
2023-06-25T19:03:26.876Z,11.70
2023-06-25T19:05:53.947Z,11.43
2023-06-25T19:08:20.773Z,11.60
2023-06-25T19:10:47.488Z,10.85
2023-06-25T19:13:14.173Z,12.63
2023-06-25T19:15:41.946Z,10.43
2023-06-25T19:18:08.892Z,11.63
2023-06-25T19:20:36.738Z,10.30
2023-06-25T19:23:27.748Z,11.02
2023-06-25T19:25:53.016Z,12.73
2023-06-25T19:28:20.075Z,11.88
2023-06-25T19:30:47.073Z,9.73
2023-06-25T19:33:13.885Z,12.20
2023-06-25T19:35:41.092Z,11.90
2023-06-25T19:38:08.186Z,10.80
2023-06-25T19:40:35.441Z,10.38
2023-06-25T19:43:03.991Z,10.50
2023-06-25T19:45:31.531Z,10.52
2023-06-25T19:48:00.932Z,10.63
2023-06-25T19:50:28.759Z,11.07
2023-06-25T19:52:55.876Z,11.50
2023-06-25T19:55:23.497Z,9.75
2023-06-25T19:57:50.316Z,10.63
2023-06-25T20:00:26.348Z,10.82
2023-06-25T20:02:53.134Z,12.40
2023-06-25T20:05:20.525Z,11.68
2023-06-25T20:07:49.709Z,10.93
2023-06-25T20:10:19.287Z,10.68
2023-06-25T20:12:50.732Z,11.52
2023-06-25T20:15:18.795Z,11.27
2023-06-25T20:17:46.303Z,11.68
2023-06-25T20:20:13.436Z,9.60
2023-06-25T20:22:40.576Z,11.02
2023-06-25T20:25:07.528Z,10.27
2023-06-25T20:27:35.273Z,10.93
2023-06-25T20:30:07.949Z,13.70
2023-06-25T20:32:35.183Z,12.00
2023-06-25T20:35:02.399Z,12.60
2023-06-25T20:37:29.338Z,10.80
2023-06-25T20:39:58.294Z,12.13
2023-06-25T20:42:25.802Z,12.38
2023-06-25T20:44:53.821Z,13.07
2023-06-25T20:47:20.679Z,12.93
2023-06-25T20:49:47.491Z,13.57
2023-06-25T20:52:14.841Z,14.60
2023-06-25T20:54:41.716Z,12.77
2023-06-25T20:57:09.344Z,14.82
2023-06-25T20:59:36.306Z,13.73
2023-06-25T21:02:04.042Z,12.60
2023-06-25T21:04:31.194Z,13.07
2023-06-25T21:06:57.934Z,13.50
2023-06-25T21:09:26.621Z,12.85
2023-06-25T21:11:53.350Z,13.68
2023-06-25T21:14:21.142Z,15.63
2023-06-25T21:16:49.947Z,13.35
2023-06-25T21:19:20.420Z,14.63
2023-06-25T21:21:47.515Z,12.65
2023-06-25T21:24:16.545Z,12.05
2023-06-25T21:26:43.635Z,12.32
2023-06-25T21:29:10.446Z,12.95
2023-06-25T21:31:37.869Z,13.25
2023-06-25T21:34:04.857Z,11.60
2023-06-25T21:36:34.272Z,12.02
2023-06-25T21:39:04.971Z,9.90
2023-06-25T21:41:32.265Z,11.40
2023-06-25T21:43:59.657Z,11.25
2023-06-25T21:46:26.930Z,11.18
2023-06-25T21:48:53.660Z,10.00
2023-06-25T21:51:20.503Z,10.13
2023-06-25T21:53:47.487Z,10.63
2023-06-25T21:56:15.459Z,12.13
2023-06-25T21:58:42.947Z,10.63
2023-06-25T22:01:09.747Z,11.75
2023-06-25T22:03:37.166Z,11.43
2023-06-25T22:06:03.859Z,11.00
2023-06-25T22:08:33.332Z,11.52
2023-06-25T22:11:00.682Z,12.02
2023-06-25T22:13:28.570Z,11.43
2023-06-25T22:15:56.914Z,10.77
2023-06-25T22:18:23.961Z,10.00
2023-06-25T22:20:51.368Z,10.60
2023-06-25T22:23:18.408Z,11.30
2023-06-25T22:25:45.660Z,10.35
2023-06-25T22:28:14.453Z,10.25
2023-06-25T22:30:41.785Z,10.98
2023-06-25T22:33:09.065Z,10.57
2023-06-25T22:36:15.425Z,13.07
2023-06-25T22:39:09.756Z,10.57
2023-06-25T22:41:37.576Z,12.00
2023-06-25T22:44:04.947Z,11.15
2023-06-25T22:46:31.879Z,11.90
2023-06-25T22:49:00.947Z,12.30
2023-06-25T22:51:31.089Z,14.40
2023-06-25T22:53:58.595Z,11.93
2023-06-25T22:56:26.626Z,11.43
2023-06-25T22:58:53.960Z,11.90
2023-06-25T23:01:24.173Z,11.13
2023-06-25T23:03:52.096Z,12.68
2023-06-25T23:06:20.036Z,11.75
2023-06-25T23:08:48.893Z,12.80
2023-06-25T23:11:17.114Z,12.52
2023-06-25T23:13:44.308Z,14.90
2023-06-25T23:16:13.245Z,11.98
2023-06-25T23:18:41.313Z,13.68
2023-06-25T23:21:13.183Z,13.73
2023-06-25T23:23:40.488Z,12.32
2023-06-25T23:26:09.582Z,13.70
2023-06-25T23:28:36.674Z,12.07
2023-06-25T23:31:04.774Z,14.45
2023-06-25T23:33:37.008Z,13.43
2023-06-25T23:36:04.280Z,14.75
2023-06-25T23:38:31.746Z,15.30
2023-06-25T23:40:58.582Z,13.82
2023-06-25T23:43:26.830Z,13.55
2023-06-25T23:45:54.137Z,14.45
2023-06-25T23:48:21.737Z,15.25
2023-06-25T23:50:49.550Z,13.07
2023-06-25T23:53:18.772Z,13.77
2023-06-25T23:55:45.624Z,14.07
2023-06-25T23:58:13.205Z,14.95
